Time;durP1;ratioP1;P1;durP2;ratioP2;P2;SDS_P1;SDS_P2;PMS_P1;PMS_P2;Temp;Humidity;BMP_temperature;BMP_pressure;BME280_temperature;BME280_humidity;BME280_pressure;Samples;Min_cycle;Max_cycle;Signal;HPM_P1;HPM_P2
2023/12/24 00:01:29;;;;;;;2.67;1.00;;;9.30;99.90;;;;;;4921755;29;20856;-80
2023/12/24 00:03:55;;;;;;;0.70;0.60;;;9.30;99.90;;;;;;4921848;29;20207;-79
2023/12/24 00:06:22;;;;;;;0.70;0.55;;;9.30;99.90;;;;;;4922319;29;20837;-78
2023/12/24 00:08:50;;;;;;;0.50;0.40;;;9.30;99.90;;;;;;4583254;29;9999934;-75
2023/12/24 00:11:16;;;;;;;0.50;0.40;;;9.30;99.90;;;;;;4923594;29;20464;-78
2023/12/24 00:13:43;;;;;;;0.80;0.80;;;9.30;99.90;;;;;;4924477;29;20196;-77
2023/12/24 00:16:10;;;;;;;0.50;0.50;;;9.40;99.90;;;;;;4924316;29;20206;-78
2023/12/24 00:18:39;;;;;;;0.77;0.77;;;9.40;99.90;;;;;;4924135;29;20470;-78
2023/12/24 00:21:06;;;;;;;0.63;0.63;;;9.40;99.90;;;;;;4922803;29;20215;-78
2023/12/24 00:23:33;;;;;;;0.40;0.40;;;9.50;99.90;;;;;;4922675;29;20695;-78
2023/12/24 00:26:00;;;;;;;3.70;1.17;;;9.50;99.90;;;;;;4924694;29;20204;-78
2023/12/24 00:28:26;;;;;;;5.63;3.13;;;9.50;99.90;;;;;;4925383;29;20446;-78
2023/12/24 00:30:53;;;;;;;0.93;0.70;;;9.60;99.90;;;;;;4925559;29;20499;-77
2023/12/24 00:33:20;;;;;;;0.50;0.40;;;9.60;99.90;;;;;;4925552;29;20435;-79
2023/12/24 00:35:48;;;;;;;0.50;0.40;;;9.60;99.90;;;;;;4928362;29;20470;-77
2023/12/24 00:38:15;;;;;;;0.93;0.88;;;9.60;99.90;;;;;;4929745;29;20206;-79
2023/12/24 00:40:42;;;;;;;0.50;0.43;;;9.60;99.90;;;;;;4928155;29;20226;-79
2023/12/24 00:43:08;;;;;;;1.17;1.05;;;9.70;99.90;;;;;;4911224;29;20230;-79
2023/12/24 00:45:35;;;;;;;1.83;0.80;;;9.60;99.90;;;;;;4918236;29;20196;-79
2023/12/24 00:48:02;;;;;;;0.60;0.50;;;9.70;99.90;;;;;;4911858;29;20480;-78
2023/12/24 00:50:29;;;;;;;2.05;1.10;;;9.70;99.90;;;;;;4913889;29;20540;-79
2023/12/24 00:52:57;;;;;;;0.70;0.60;;;9.70;99.90;;;;;;4925106;29;20231;-78
2023/12/24 00:55:24;;;;;;;0.60;0.60;;;9.70;99.90;;;;;;4932278;29;20239;-78
2023/12/24 00:57:50;;;;;;;2.35;0.90;;;9.70;99.90;;;;;;4915110;29;20539;-77
2023/12/24 01:00:17;;;;;;;0.75;0.70;;;9.70;99.90;;;;;;4914980;29;20223;-79
2023/12/24 01:02:44;;;;;;;0.50;0.40;;;9.70;99.90;;;;;;4915803;29;20177;-77
2023/12/24 01:05:11;;;;;;;0.60;0.60;;;9.70;99.90;;;;;;4922881;29;20208;-78
2023/12/24 01:07:38;;;;;;;0.70;0.70;;;9.80;99.90;;;;;;4918410;29;20196;-78
2023/12/24 01:10:06;;;;;;;0.70;0.57;;;9.80;99.90;;;;;;4909803;29;20484;-78
2023/12/24 01:12:33;;;;;;;0.70;0.70;;;9.80;99.90;;;;;;4910141;29;20449;-78
2023/12/24 01:14:59;;;;;;;0.60;0.60;;;9.80;99.90;;;;;;4926548;29;20458;-79
2023/12/24 01:17:26;;;;;;;0.50;0.40;;;9.80;99.90;;;;;;4922609;29;20198;-78
2023/12/24 01:19:53;;;;;;;0.70;0.60;;;9.80;99.90;;;;;;4928154;29;20455;-78
2023/12/24 01:22:20;;;;;;;0.60;0.60;;;9.80;99.90;;;;;;4918134;29;20461;-79
2023/12/24 01:24:46;;;;;;;4.70;0.80;;;9.80;99.90;;;;;;4907926;29;20540;-77
2023/12/24 01:27:15;;;;;;;0.90;0.80;;;9.90;99.90;;;;;;4911384;29;20431;-79
2023/12/24 01:29:41;;;;;;;0.90;0.90;;;9.90;99.90;;;;;;4914689;29;20575;-78
2023/12/24 01:32:08;;;;;;;0.60;0.60;;;9.90;99.90;;;;;;4924684;29;20446;-78
2023/12/24 01:34:35;;;;;;;0.50;0.50;;;9.90;99.90;;;;;;4926008;29;20441;-78
2023/12/24 01:37:02;;;;;;;0.60;0.57;;;9.90;99.90;;;;;;4914858;29;20448;-78
2023/12/24 01:39:29;;;;;;;1.17;0.83;;;9.90;99.90;;;;;;4918526;29;20444;-78
2023/12/24 01:41:56;;;;;;;0.50;0.40;;;9.90;99.90;;;;;;4921300;29;20567;-78
2023/12/24 01:44:24;;;;;;;1.30;1.20;;;9.90;99.90;;;;;;4912054;29;20441;-77
2023/12/24 01:46:50;;;;;;;4.47;1.87;;;9.80;99.90;;;;;;4919210;29;20458;-78
2023/12/24 01:49:17;;;;;;;0.50;0.50;;;9.80;99.90;;;;;;4910845;29;20504;-78
2023/12/24 01:51:44;;;;;;;0.50;0.40;;;9.80;99.90;;;;;;4922041;29;20715;-76
2023/12/24 01:54:12;;;;;;;0.50;0.50;;;9.80;99.90;;;;;;4911211;29;20449;-78
2023/12/24 01:56:40;;;;;;;0.50;0.40;;;9.80;99.90;;;;;;4903099;29;20444;-77
2023/12/24 01:59:09;;;;;;;0.97;0.97;;;9.80;99.90;;;;;;4906991;29;20513;-78
2023/12/24 02:01:37;;;;;;;0.53;0.50;;;9.70;99.90;;;;;;4930733;29;20460;-78
2023/12/24 02:04:05;;;;;;;1.33;0.90;;;9.70;99.90;;;;;;4929536;29;20444;-77
2023/12/24 02:06:33;;;;;;;1.60;0.80;;;9.70;99.90;;;;;;4916131;29;20444;-78
2023/12/24 02:08:59;;;;;;;0.80;0.80;;;9.70;99.90;;;;;;4927051;29;20546;-78
2023/12/24 02:11:26;;;;;;;0.80;0.80;;;9.70;99.90;;;;;;4926891;29;20483;-78
2023/12/24 02:13:53;;;;;;;0.52;0.52;;;9.70;99.90;;;;;;4926580;29;20444;-79
2023/12/24 02:16:22;;;;;;;1.63;0.63;;;9.70;99.90;;;;;;4910196;29;20206;-78
2023/12/24 02:18:51;;;;;;;0.50;0.40;;;9.80;99.90;;;;;;4921667;29;20449;-78
2023/12/24 02:21:19;;;;;;;0.50;0.40;;;9.80;99.90;;;;;;4926753;29;20739;-78
2023/12/24 02:23:46;;;;;;;0.60;0.40;;;9.80;99.90;;;;;;4916444;29;20874;-78
2023/12/24 02:26:22;;;;;;;0.50;0.40;;;9.80;99.90;;;;;;4927830;29;20454;-78
2023/12/24 02:28:54;;;;;;;0.50;0.40;;;9.80;99.90;;;;;;4911333;29;20902;-78
2023/12/24 02:31:24;;;;;;;3.50;0.80;;;9.80;99.90;;;;;;4916382;29;20487;-78
2023/12/24 02:33:53;;;;;;;0.60;0.60;;;9.80;99.90;;;;;;4924662;29;20440;-79
2023/12/24 02:36:21;;;;;;;0.53;0.50;;;9.90;99.90;;;;;;4927240;29;20482;-78
2023/12/24 02:38:49;;;;;;;0.70;0.60;;;9.90;99.90;;;;;;4924466;29;20951;-78
2023/12/24 02:41:16;;;;;;;0.57;0.53;;;9.80;99.90;;;;;;4921258;29;20848;-78
2023/12/24 02:43:42;;;;;;;0.50;0.40;;;9.70;99.90;;;;;;4938158;29;20443;-76
2023/12/24 02:46:09;;;;;;;1.40;0.70;;;9.70;99.90;;;;;;4947312;29;20206;-80
2023/12/24 02:48:36;;;;;;;0.53;0.50;;;9.60;99.90;;;;;;4947886;29;20534;-79
2023/12/24 02:51:04;;;;;;;0.50;0.40;;;9.50;99.90;;;;;;4949039;29;20493;-79
2023/12/24 02:53:32;;;;;;;5.38;0.70;;;9.30;99.90;;;;;;4941001;29;20483;-80
2023/12/24 02:55:59;;;;;;;0.53;0.47;;;9.30;99.90;;;;;;4941132;29;20271;-80
2023/12/24 02:58:26;;;;;;;0.50;0.40;;;9.20;99.90;;;;;;4940660;29;20443;-80
2023/12/24 03:00:53;;;;;;;0.60;0.60;;;9.10;99.90;;;;;;4934384;29;20466;-81
2023/12/24 03:03:20;;;;;;;3.80;0.70;;;9.00;99.90;;;;;;4945581;29;20267;-80
2023/12/24 03:05:47;;;;;;;2.28;0.65;;;9.00;99.90;;;;;;4929098;29;20196;-78
2023/12/24 03:08:14;;;;;;;0.90;0.65;;;8.90;99.90;;;;;;4931573;29;20228;-80
2023/12/24 03:10:42;;;;;;;0.50;0.43;;;8.90;99.90;;;;;;4948174;29;20218;-80
2023/12/24 03:13:09;;;;;;;0.67;0.67;;;8.90;99.90;;;;;;4939578;29;20658;-80
2023/12/24 03:15:36;;;;;;;0.70;0.70;;;8.90;99.90;;;;;;4936051;29;20466;-80
2023/12/24 03:18:02;;;;;;;0.40;0.35;;;8.80;99.90;;;;;;4936432;29;20204;-81
2023/12/24 03:20:29;;;;;;;0.50;0.50;;;8.80;99.90;;;;;;4929381;29;20591;-81
2023/12/24 03:22:55;;;;;;;0.50;0.40;;;8.80;99.90;;;;;;4928663;29;20659;-80
2023/12/24 03:25:22;;;;;;;0.60;0.60;;;8.80;99.90;;;;;;4928479;29;20463;-81
2023/12/24 03:27:50;;;;;;;0.63;0.63;;;8.80;99.90;;;;;;4933092;29;20538;-79
2023/12/24 03:30:17;;;;;;;0.95;0.90;;;8.80;99.90;;;;;;4939000;29;20294;-80
2023/12/24 03:32:44;;;;;;;1.02;0.93;;;8.80;99.90;;;;;;4933952;29;20210;-80
2023/12/24 03:35:11;;;;;;;0.98;0.55;;;8.80;99.90;;;;;;4928392;29;20200;-80
2023/12/24 03:37:38;;;;;;;2.67;1.08;;;8.90;99.90;;;;;;4937616;29;20198;-79
2023/12/24 03:40:05;;;;;;;1.63;1.40;;;8.90;99.90;;;;;;4937435;29;20295;-80
2023/12/24 03:42:32;;;;;;;0.98;0.70;;;8.90;99.90;;;;;;4918463;29;20291;-80
2023/12/24 03:45:00;;;;;;;0.70;0.70;;;8.90;99.90;;;;;;4917807;29;20214;-80
2023/12/24 03:47:26;;;;;;;1.20;1.20;;;8.90;99.90;;;;;;4912528;29;20207;-80
2023/12/24 03:49:53;;;;;;;2.05;1.52;;;8.90;99.90;;;;;;4914663;29;20200;-80
2023/12/24 03:52:20;;;;;;;2.33;2.13;;;8.90;99.90;;;;;;4909569;29;20208;-80
2023/12/24 03:54:47;;;;;;;1.15;1.15;;;9.00;99.90;;;;;;4908941;29;20200;-78
2023/12/24 03:57:13;;;;;;;2.83;2.13;;;9.00;99.90;;;;;;4909958;29;20196;-80
2023/12/24 03:59:40;;;;;;;1.77;1.25;;;9.00;99.90;;;;;;4924240;29;20196;-80
2023/12/24 04:02:08;;;;;;;0.88;0.88;;;9.00;99.90;;;;;;4917639;29;20196;-80
2023/12/24 04:04:35;;;;;;;0.50;0.50;;;9.00;99.90;;;;;;4908801;29;20192;-80
2023/12/24 04:07:02;;;;;;;2.47;1.60;;;9.00;99.90;;;;;;4916900;29;20232;-81
2023/12/24 04:09:31;;;;;;;0.80;0.80;;;9.00;99.90;;;;;;4916808;29;20200;-80
2023/12/24 04:11:58;;;;;;;0.75;0.75;;;9.00;99.90;;;;;;4916045;29;20653;-80
2023/12/24 04:14:25;;;;;;;0.73;0.73;;;9.00;99.90;;;;;;4918289;29;20206;-80
2023/12/24 04:16:51;;;;;;;4.18;1.50;;;9.10;99.90;;;;;;4905382;29;20299;-78
2023/12/24 04:19:21;;;;;;;0.95;0.95;;;9.10;99.90;;;;;;4905368;29;20785;-79
2023/12/24 04:21:48;;;;;;;0.98;0.75;;;9.10;99.90;;;;;;4897541;29;20286;-79
2023/12/24 04:24:15;;;;;;;0.50;0.40;;;9.10;99.90;;;;;;4905171;29;20216;-78
2023/12/24 04:26:41;;;;;;;2.45;1.98;;;9.10;99.90;;;;;;4905089;29;20192;-79
2023/12/24 04:29:08;;;;;;;0.40;0.40;;;9.10;99.90;;;;;;4905287;29;20236;-79
2023/12/24 04:31:39;;;;;;;0.70;0.63;;;9.10;99.90;;;;;;4897024;29;20223;-79
2023/12/24 04:34:06;;;;;;;1.83;0.93;;;9.10;99.90;;;;;;4904902;29;20205;-79
2023/12/24 04:36:34;;;;;;;1.17;1.17;;;9.10;99.90;;;;;;4904676;29;20572;-79
2023/12/24 04:39:01;;;;;;;0.50;0.50;;;9.10;99.90;;;;;;4905113;29;20227;-79
2023/12/24 04:41:28;;;;;;;1.17;1.08;;;9.10;99.90;;;;;;4916096;29;20220;-80
2023/12/24 04:43:55;;;;;;;1.35;1.25;;;9.20;99.90;;;;;;4913983;29;20243;-79
2023/12/24 04:46:22;;;;;;;2.17;2.08;;;9.10;99.90;;;;;;4901199;29;20682;-79
2023/12/24 04:48:49;;;;;;;0.45;0.45;;;9.10;99.90;;;;;;4906594;29;20588;-79
2023/12/24 04:51:16;;;;;;;0.50;0.50;;;9.10;99.90;;;;;;4900231;29;20225;-79
2023/12/24 04:53:44;;;;;;;0.77;0.77;;;9.10;99.90;;;;;;4911800;29;20218;-79
2023/12/24 04:56:20;;;;;;;2.13;1.57;;;9.10;99.90;;;;;;4911668;29;20210;-80
2023/12/24 04:58:47;;;;;;;1.75;1.30;;;9.20;99.90;;;;;;4908276;29;20437;-79
2023/12/24 05:01:16;;;;;;;1.88;0.80;;;9.10;99.90;;;;;;4900078;29;20710;-79
2023/12/24 05:03:43;;;;;;;0.50;0.50;;;9.20;99.90;;;;;;4907876;29;20200;-79
2023/12/24 05:06:09;;;;;;;1.58;1.48;;;9.20;99.90;;;;;;4899910;29;20207;-79
2023/12/24 05:08:36;;;;;;;1.05;0.68;;;9.20;99.90;;;;;;4918514;29;20734;-79
2023/12/24 05:11:06;;;;;;;1.83;0.82;;;9.20;99.90;;;;;;4914133;29;20344;-79
2023/12/24 05:13:33;;;;;;;0.60;0.50;;;9.20;99.90;;;;;;4915766;29;20196;-80
2023/12/24 05:16:00;;;;;;;0.40;0.40;;;9.20;99.90;;;;;;4905342;29;20200;-80
2023/12/24 05:18:26;;;;;;;0.82;0.80;;;9.20;99.90;;;;;;4901901;29;20549;-79
2023/12/24 05:20:53;;;;;;;0.70;0.70;;;9.20;99.90;;;;;;4899330;29;20227;-79
2023/12/24 05:23:21;;;;;;;0.70;0.68;;;9.20;99.90;;;;;;4907526;29;20196;-79
2023/12/24 05:25:48;;;;;;;0.50;0.50;;;9.20;99.90;;;;;;4907580;29;20256;-76
2023/12/24 05:28:17;;;;;;;0.93;0.93;;;9.20;99.90;;;;;;4899866;29;20453;-79
2023/12/24 05:30:44;;;;;;;0.63;0.60;;;9.20;99.90;;;;;;4899344;29;20216;-79
2023/12/24 05:33:11;;;;;;;0.50;0.50;;;9.20;99.90;;;;;;4899932;29;20457;-79
2023/12/24 05:35:38;;;;;;;0.90;0.60;;;9.20;99.90;;;;;;4909631;29;21027;-79
2023/12/24 05:38:05;;;;;;;1.63;1.10;;;9.20;99.90;;;;;;4910729;29;20442;-79
2023/12/24 05:40:32;;;;;;;1.20;1.20;;;9.20;99.90;;;;;;4907622;29;20467;-79
2023/12/24 05:42:58;;;;;;;0.65;0.65;;;9.20;99.90;;;;;;4918238;29;20200;-79
2023/12/24 05:45:26;;;;;;;2.30;1.47;;;9.20;99.90;;;;;;4918048;29;20198;-78
2023/12/24 05:47:53;;;;;;;0.73;0.73;;;9.20;99.90;;;;;;4918420;29;20452;-78
2023/12/24 05:50:20;;;;;;;1.35;1.35;;;9.20;99.90;;;;;;4917972;29;20219;-78
2023/12/24 05:52:47;;;;;;;0.60;0.60;;;9.20;99.90;;;;;;4917355;29;20235;-79
2023/12/24 05:55:13;;;;;;;1.05;1.05;;;9.20;99.90;;;;;;4918493;29;20656;-79
2023/12/24 05:57:40;;;;;;;1.67;0.98;;;9.20;99.90;;;;;;4917949;29;20619;-80
2023/12/24 06:00:09;;;;;;;3.72;1.70;;;9.20;99.90;;;;;;4918131;29;20359;-80
2023/12/24 06:02:37;;;;;;;2.10;1.90;;;9.20;99.90;;;;;;4917881;29;20231;-80
2023/12/24 06:05:04;;;;;;;3.30;1.90;;;9.20;99.90;;;;;;4918192;29;21105;-80
2023/12/24 06:07:31;;;;;;;2.17;1.38;;;9.20;99.90;;;;;;4917759;29;20466;-80
2023/12/24 06:09:58;;;;;;;0.93;0.85;;;9.20;99.90;;;;;;4917880;29;20223;-79
2023/12/24 06:12:24;;;;;;;0.47;0.43;;;9.20;99.90;;;;;;4945768;23;20225;-78
2023/12/24 06:14:51;;;;;;;1.23;1.10;;;9.20;99.90;;;;;;4968943;28;20201;-81
2023/12/24 06:17:18;;;;;;;1.25;1.15;;;9.30;99.90;;;;;;4959728;28;20205;-81
2023/12/24 06:19:46;;;;;;;0.50;0.40;;;9.30;99.90;;;;;;4956151;28;20194;-80
2023/12/24 06:22:13;;;;;;;1.73;1.58;;;9.30;99.90;;;;;;4956966;28;20278;-81
2023/12/24 06:24:40;;;;;;;1.67;1.58;;;9.30;99.90;;;;;;4957513;28;20198;-83
2023/12/24 06:27:06;;;;;;;2.50;2.00;;;9.30;99.90;;;;;;4957519;28;20209;-82
2023/12/24 06:29:33;;;;;;;2.80;2.60;;;9.30;99.90;;;;;;4957055;28;20206;-82
2023/12/24 06:32:00;;;;;;;0.50;0.50;;;9.30;99.90;;;;;;4956734;28;20219;-79
2023/12/24 06:34:27;;;;;;;1.92;1.08;;;9.30;99.90;;;;;;4956505;28;20207;-83
2023/12/24 06:36:55;;;;;;;1.85;0.98;;;9.30;99.90;;;;;;4956158;28;20574;-81
2023/12/24 06:39:22;;;;;;;1.93;1.87;;;9.30;99.90;;;;;;4956175;28;20203;-82
2023/12/24 06:41:50;;;;;;;0.70;0.70;;;9.30;99.90;;;;;;4948458;28;20538;-82
2023/12/24 06:44:16;;;;;;;1.20;1.10;;;9.30;99.90;;;;;;4955597;28;20393;-80
2023/12/24 06:46:43;;;;;;;1.02;0.95;;;9.30;99.90;;;;;;4955328;28;20206;-82
2023/12/24 06:49:10;;;;;;;0.63;0.63;;;9.30;99.90;;;;;;4956349;28;20207;-81
2023/12/24 06:51:37;;;;;;;2.17;0.95;;;9.30;99.90;;;;;;4955593;28;20477;-81
2023/12/24 06:54:05;;;;;;;1.75;1.65;;;9.30;99.90;;;;;;4956452;28;20226;-79
2023/12/24 06:56:32;;;;;;;1.47;1.37;;;9.30;99.90;;;;;;4955607;28;20203;-81
2023/12/24 06:58:58;;;;;;;1.37;0.70;;;9.40;99.90;;;;;;4956223;28;20446;-82
2023/12/24 07:01:25;;;;;;;3.80;1.33;;;9.40;99.90;;;;;;4956269;28;20957;-82
2023/12/24 07:03:52;;;;;;;2.30;1.97;;;9.40;99.90;;;;;;4947309;28;20218;-83
2023/12/24 07:06:19;;;;;;;1.20;1.10;;;9.40;99.90;;;;;;4954881;28;20485;-83
2023/12/24 07:08:45;;;;;;;1.03;0.97;;;9.40;99.90;;;;;;4955468;28;20449;-82
2023/12/24 07:11:14;;;;;;;2.17;2.00;;;9.40;99.90;;;;;;4955520;28;20486;-82
2023/12/24 07:13:41;;;;;;;0.90;0.90;;;9.40;99.90;;;;;;4953500;28;20828;-81
2023/12/24 07:16:08;;;;;;;2.35;1.17;;;9.40;99.90;;;;;;4949357;28;20203;-80
2023/12/24 07:18:34;;;;;;;0.73;0.73;;;9.40;99.90;;;;;;4947169;28;20207;-81
2023/12/24 07:21:01;;;;;;;4.83;1.33;;;9.40;99.90;;;;;;4950720;28;20199;-81
2023/12/24 07:23:28;;;;;;;2.43;2.23;;;9.40;99.90;;;;;;4951926;28;21001;-81
2023/12/24 07:25:55;;;;;;;0.98;0.85;;;9.40;99.90;;;;;;4947107;28;21045;-81
2023/12/24 07:28:23;;;;;;;2.25;1.70;;;9.40;99.90;;;;;;4955192;28;20205;-83
2023/12/24 07:30:50;;;;;;;1.48;1.20;;;9.40;99.90;;;;;;4955029;28;20237;-81
2023/12/24 07:33:17;;;;;;;5.00;2.03;;;9.50;99.90;;;;;;4955027;28;20229;-81
2023/12/24 07:35:43;;;;;;;0.40;0.40;;;9.50;99.90;;;;;;4955477;28;20448;-82
2023/12/24 07:38:10;;;;;;;0.77;0.77;;;9.50;99.90;;;;;;4955114;28;20442;-78
2023/12/24 07:40:37;;;;;;;3.37;0.90;;;9.50;99.90;;;;;;4961982;28;20468;-81
2023/12/24 07:43:04;;;;;;;2.55;1.00;;;9.50;99.90;;;;;;4955031;28;20457;-81
2023/12/24 07:45:32;;;;;;;1.60;1.50;;;9.50;99.90;;;;;;4955197;28;20685;-81
2023/12/24 07:47:58;;;;;;;1.73;1.55;;;9.50;99.90;;;;;;4947277;28;20797;-80
2023/12/24 07:50:25;;;;;;;0.93;0.93;;;9.50;99.90;;;;;;4955753;28;20194;-82
2023/12/24 07:52:52;;;;;;;0.67;0.67;;;9.60;99.90;;;;;;4955472;28;20233;-82
2023/12/24 07:55:19;;;;;;;1.97;1.77;;;9.60;99.90;;;;;;4956743;29;20456;-82
2023/12/24 07:57:45;;;;;;;1.30;1.20;;;9.60;99.90;;;;;;4954921;28;20821;-82
2023/12/24 08:00:13;;;;;;;3.85;2.22;;;9.60;99.90;;;;;;4955119;28;20203;-79
2023/12/24 08:02:41;;;;;;;0.90;0.85;;;9.60;99.90;;;;;;4955445;28;20217;-81
2023/12/24 08:05:09;;;;;;;1.13;0.93;;;9.60;99.90;;;;;;4955871;28;20203;-81
2023/12/24 08:07:36;;;;;;;1.87;1.27;;;9.60;99.90;;;;;;4955998;28;20457;-82
2023/12/24 08:10:04;;;;;;;1.10;1.10;;;9.60;99.90;;;;;;4954881;28;20447;-82
2023/12/24 08:12:30;;;;;;;1.00;1.00;;;9.60;99.90;;;;;;4954113;28;20490;-81
2023/12/24 08:14:57;;;;;;;0.40;0.30;;;9.60;99.90;;;;;;4953893;28;20453;-83
2023/12/24 08:17:24;;;;;;;0.93;0.57;;;9.60;99.90;;;;;;4957172;28;20454;-81
2023/12/24 08:19:54;;;;;;;0.90;0.90;;;9.60;99.90;;;;;;4958716;28;20457;-82
2023/12/24 08:22:21;;;;;;;0.60;0.50;;;9.60;99.90;;;;;;4958715;28;20222;-82
2023/12/24 08:24:49;;;;;;;0.82;0.82;;;9.60;99.90;;;;;;4948229;28;20202;-83
2023/12/24 08:27:16;;;;;;;0.50;0.40;;;9.60;99.90;;;;;;4939094;28;20237;-83
2023/12/24 08:29:43;;;;;;;0.70;0.70;;;9.60;99.90;;;;;;4939027;28;20457;-80
2023/12/24 08:32:10;;;;;;;0.70;0.70;;;9.60;99.90;;;;;;4939315;28;20483;-82
2023/12/24 08:34:37;;;;;;;0.63;0.63;;;9.60;99.90;;;;;;4939531;28;20457;-81
2023/12/24 08:37:05;;;;;;;1.05;0.80;;;9.60;99.90;;;;;;4947807;28;20203;-82
2023/12/24 08:39:32;;;;;;;0.60;0.60;;;9.60;99.90;;;;;;4939464;28;20200;-82
2023/12/24 08:41:59;;;;;;;0.77;0.60;;;9.60;99.90;;;;;;4939401;28;20957;-83
2023/12/24 08:44:25;;;;;;;1.05;0.60;;;9.60;99.90;;;;;;4939112;28;20466;-83
2023/12/24 08:46:52;;;;;;;1.63;1.53;;;9.60;99.90;;;;;;4946727;28;20202;-82
2023/12/24 08:49:19;;;;;;;1.83;1.73;;;9.60;99.90;;;;;;4939247;28;20442;-82
2023/12/24 08:51:46;;;;;;;0.80;0.80;;;9.70;99.90;;;;;;4939364;28;21006;-81
2023/12/24 08:54:14;;;;;;;1.27;1.25;;;9.70;99.90;;;;;;4939491;28;20463;-83
2023/12/24 08:56:40;;;;;;;1.13;0.73;;;9.70;99.90;;;;;;4946304;28;20574;-81
2023/12/24 08:59:09;;;;;;;1.98;1.77;;;9.70;99.90;;;;;;4939057;28;20221;-83
2023/12/24 09:01:40;;;;;;;6.07;2.57;;;9.70;99.90;;;;;;4953771;28;20284;-82
2023/12/24 09:04:06;;;;;;;0.65;0.65;;;9.70;99.90;;;;;;4958177;28;20907;-81
2023/12/24 09:06:33;;;;;;;1.30;1.17;;;9.70;99.90;;;;;;4957809;28;20676;-81
2023/12/24 09:09:00;;;;;;;1.30;1.20;;;9.70;99.90;;;;;;4957682;28;20805;-81
2023/12/24 09:11:28;;;;;;;1.43;1.33;;;9.70;99.90;;;;;;4958394;28;20204;-83
2023/12/24 09:13:55;;;;;;;2.08;1.23;;;9.70;99.90;;;;;;4957822;28;20462;-82
2023/12/24 09:16:21;;;;;;;1.10;1.00;;;9.70;99.90;;;;;;4961888;28;20206;-82
2023/12/24 09:18:48;;;;;;;1.08;0.80;;;9.70;99.90;;;;;;4957568;28;20296;-83
2023/12/24 09:21:15;;;;;;;0.80;0.70;;;9.70;99.90;;;;;;4957577;28;20201;-79
2023/12/24 09:23:42;;;;;;;1.40;1.30;;;9.70;99.90;;;;;;4957736;28;20219;-81
2023/12/24 09:26:09;;;;;;;1.90;1.80;;;9.70;99.90;;;;;;4956803;28;20213;-81
2023/12/24 09:28:37;;;;;;;0.70;0.60;;;9.70;99.90;;;;;;4957210;28;20202;-83
2023/12/24 09:31:04;;;;;;;2.63;1.65;;;9.70;99.90;;;;;;4957562;28;20224;-81
2023/12/24 09:33:32;;;;;;;0.75;0.75;;;9.70;99.90;;;;;;4959041;28;20241;-82
2023/12/24 09:35:58;;;;;;;0.75;0.75;;;9.80;99.90;;;;;;4957332;28;20665;-83
2023/12/24 09:38:25;;;;;;;0.63;0.63;;;9.80;99.90;;;;;;4957558;28;20677;-82
2023/12/24 09:40:52;;;;;;;0.50;0.50;;;9.80;99.90;;;;;;4956993;28;20209;-81
2023/12/24 09:43:19;;;;;;;1.90;1.77;;;9.80;99.90;;;;;;4957437;28;20218;-82
2023/12/24 09:45:47;;;;;;;1.65;1.05;;;9.80;99.90;;;;;;4960027;28;20451;-82
2023/12/24 09:48:14;;;;;;;1.50;1.40;;;9.80;99.90;;;;;;4957161;28;20209;-82
2023/12/24 09:50:40;;;;;;;4.88;1.63;;;9.80;99.90;;;;;;4956815;28;20201;-82
2023/12/24 09:53:07;;;;;;;2.47;1.98;;;9.80;99.90;;;;;;4956077;28;20222;-83
2023/12/24 09:55:34;;;;;;;1.00;0.80;;;9.80;99.90;;;;;;4955352;28;20203;-83
2023/12/24 09:58:01;;;;;;;4.63;1.90;;;9.80;99.90;;;;;;4955383;28;20464;-81
2023/12/24 10:00:27;;;;;;;0.40;0.40;;;9.80;99.90;;;;;;4955295;28;20545;-81
2023/12/24 10:02:56;;;;;;;0.68;0.68;;;9.90;99.90;;;;;;4952923;28;20222;-83
2023/12/24 10:05:22;;;;;;;0.40;0.40;;;9.90;99.90;;;;;;4948553;28;20204;-84
2023/12/24 10:07:49;;;;;;;1.30;0.90;;;9.90;99.90;;;;;;4955752;28;20454;-82
2023/12/24 10:10:17;;;;;;;0.70;0.70;;;9.90;99.90;;;;;;4955613;28;20442;-80
2023/12/24 10:12:44;;;;;;;0.60;0.60;;;9.90;99.90;;;;;;4949091;28;20490;-83
2023/12/24 10:15:11;;;;;;;1.17;1.08;;;10.00;99.90;;;;;;4956608;28;20506;-80
2023/12/24 10:17:38;;;;;;;2.30;1.33;;;10.00;99.90;;;;;;4949277;28;20298;-81
2023/12/24 10:20:09;;;;;;;1.48;1.30;;;10.00;99.90;;;;;;4955300;28;20601;-82
2023/12/24 10:22:36;;;;;;;1.03;0.90;;;10.00;99.90;;;;;;4956747;28;20261;-82
2023/12/24 10:25:05;;;;;;;0.95;0.65;;;10.00;99.90;;;;;;4956406;28;20450;-82
2023/12/24 10:27:32;;;;;;;1.67;1.57;;;10.00;99.90;;;;;;4956694;28;20685;-83
2023/12/24 10:30:10;;;;;;;1.20;1.20;;;10.10;99.90;;;;;;4956982;28;20775;-83
2023/12/24 10:32:37;;;;;;;1.63;1.40;;;10.10;99.90;;;;;;4957674;28;20296;-81
2023/12/24 10:35:04;;;;;;;2.05;1.92;;;10.10;99.90;;;;;;4957977;28;20460;-82
2023/12/24 10:37:33;;;;;;;1.27;1.17;;;10.20;99.90;;;;;;4956633;28;20198;-82
2023/12/24 10:40:08;;;;;;;1.10;1.00;;;10.20;99.90;;;;;;4955976;28;20484;-83
2023/12/24 10:42:36;;;;;;;1.33;1.23;;;10.20;99.90;;;;;;4956435;28;20469;-82
2023/12/24 10:45:03;;;;;;;1.37;1.27;;;10.20;99.90;;;;;;4956467;28;20198;-82
2023/12/24 10:47:30;;;;;;;3.00;2.70;;;10.30;99.90;;;;;;4956737;28;20443;-83
2023/12/24 10:49:56;;;;;;;1.07;0.97;;;10.30;99.90;;;;;;4964848;28;20456;-84
2023/12/24 10:52:23;;;;;;;1.57;1.47;;;10.30;99.90;;;;;;4957420;28;20494;-84
2023/12/24 10:54:53;;;;;;;1.70;1.50;;;10.30;99.90;;;;;;4956683;28;20450;-82
2023/12/24 10:57:30;;;;;;;1.47;1.37;;;10.30;99.90;;;;;;4949290;28;20442;-81
2023/12/24 11:00:09;;;;;;;1.10;1.00;;;10.40;99.90;;;;;;4956988;28;20444;-82
2023/12/24 11:02:37;;;;;;;0.80;0.80;;;10.40;99.90;;;;;;4957304;29;20968;-83
2023/12/24 11:05:05;;;;;;;1.03;0.93;;;10.40;99.90;;;;;;4956915;28;20438;-83
2023/12/24 11:07:47;;;;;;;0.40;0.40;;;10.40;99.90;;;;;;4956822;28;20442;-82
2023/12/24 11:10:43;;;;;;;1.43;0.70;;;10.40;99.90;;;;;;4957007;28;20859;-82
2023/12/24 11:13:11;;;;;;;0.57;0.57;;;10.50;99.90;;;;;;4956551;28;20521;-82
2023/12/24 11:15:42;;;;;;;0.80;0.80;;;10.50;99.90;;;;;;4956791;28;20449;-83
2023/12/24 11:18:08;;;;;;;1.33;1.23;;;10.50;99.90;;;;;;4955794;28;20513;-82
2023/12/24 11:20:44;;;;;;;1.77;1.67;;;10.50;99.90;;;;;;4956747;28;20442;-81
2023/12/24 11:23:16;;;;;;;0.50;0.50;;;10.50;99.90;;;;;;4956886;28;20892;-82
2023/12/24 11:25:45;;;;;;;0.93;0.83;;;10.50;99.90;;;;;;4956588;28;20446;-83
2023/12/24 11:28:13;;;;;;;0.90;0.90;;;10.60;99.90;;;;;;4956600;28;20446;-78
2023/12/24 11:31:02;;;;;;;1.40;1.30;;;10.60;99.90;;;;;;4956687;28;20442;-83
2023/12/24 11:33:49;;;;;;;0.93;0.63;;;10.60;99.90;;;;;;4950027;28;20485;-83
2023/12/24 11:36:20;;;;;;;1.27;1.17;;;10.60;99.90;;;;;;4956034;28;20929;-82
2023/12/24 11:38:47;;;;;;;1.17;0.60;;;10.50;99.90;;;;;;4956913;28;20458;-83
2023/12/24 11:41:17;;;;;;;2.77;2.50;;;10.50;99.90;;;;;;4956990;28;20454;-82
2023/12/24 11:43:53;;;;;;;1.03;0.63;;;10.50;99.90;;;;;;4956546;28;20996;-82
2023/12/24 11:46:20;;;;;;;0.80;0.80;;;10.50;99.90;;;;;;4956805;28;20445;-82
2023/12/24 11:48:48;;;;;;;1.90;1.80;;;10.50;99.90;;;;;;4957689;28;20446;-83
2023/12/24 11:51:15;;;;;;;3.23;3.03;;;10.50;99.90;;;;;;4957747;28;20438;-83
2023/12/24 11:53:43;;;;;;;1.73;1.53;;;10.60;99.90;;;;;;4960423;28;20485;-83
2023/12/24 11:56:11;;;;;;;0.80;0.80;;;10.60;99.90;;;;;;4959857;28;20453;-79
2023/12/24 11:58:40;;;;;;;2.33;2.10;;;10.60;99.90;;;;;;4960762;28;20462;-82
2023/12/24 12:01:07;;;;;;;0.70;0.60;;;10.60;99.90;;;;;;4960767;28;20472;-82
2023/12/24 12:03:36;;;;;;;2.00;1.80;;;10.60;99.90;;;;;;4952370;28;20489;-83
2023/12/24 12:06:04;;;;;;;5.80;3.33;;;10.60;99.90;;;;;;4958511;28;20938;-82
2023/12/24 12:08:32;;;;;;;2.90;2.70;;;10.60;99.90;;;;;;4953423;28;20446;-82
2023/12/24 12:10:59;;;;;;;2.87;2.60;;;10.60;99.90;;;;;;4961061;28;20446;-82
2023/12/24 12:13:26;;;;;;;2.13;1.67;;;10.60;99.90;;;;;;4960232;28;20862;-83
2023/12/24 12:15:54;;;;;;;1.30;1.03;;;10.60;99.90;;;;;;4961621;28;20509;-83
2023/12/24 12:18:21;;;;;;;1.13;1.03;;;10.60;99.90;;;;;;4961349;28;20450;-84
2023/12/24 12:20:48;;;;;;;1.60;1.50;;;10.60;99.90;;;;;;4961448;28;20525;-81
2023/12/24 12:23:18;;;;;;;3.47;3.10;;;10.60;99.90;;;;;;4960459;28;20465;-84
2023/12/24 12:25:45;;;;;;;2.03;1.83;;;10.70;99.90;;;;;;4960537;28;20458;-83
2023/12/24 12:28:12;;;;;;;3.20;3.00;;;10.70;99.90;;;;;;4960051;28;20450;-83
2023/12/24 12:30:39;;;;;;;2.73;2.40;;;10.70;99.90;;;;;;4960339;28;20895;-82
2023/12/24 12:33:08;;;;;;;4.20;3.53;;;10.70;99.90;;;;;;4959601;28;20984;-78
2023/12/24 12:35:35;;;;;;;1.50;1.40;;;10.70;99.90;;;;;;4960079;28;20478;-83
2023/12/24 12:38:02;;;;;;;2.40;2.20;;;10.70;99.90;;;;;;4951275;28;20529;-80
2023/12/24 12:40:29;;;;;;;1.87;1.77;;;10.70;99.90;;;;;;4951141;28;20450;-81
2023/12/24 12:42:56;;;;;;;5.43;2.00;;;10.70;99.90;;;;;;4951557;28;20472;-83
2023/12/24 12:45:23;;;;;;;1.60;0.93;;;10.70;99.90;;;;;;4948991;28;20447;-81
2023/12/24 12:47:50;;;;;;;1.40;1.30;;;10.70;99.90;;;;;;4939475;28;20455;-80
2023/12/24 12:50:18;;;;;;;1.43;1.33;;;10.70;99.90;;;;;;4949274;28;20465;-78
2023/12/24 12:52:49;;;;;;;0.80;0.80;;;10.70;99.90;;;;;;4958498;28;20480;-81
2023/12/24 12:55:16;;;;;;;1.27;1.17;;;10.70;99.90;;;;;;4958431;28;20454;-81
2023/12/24 12:57:44;;;;;;;1.10;1.00;;;10.70;99.90;;;;;;4958122;28;20450;-80